Cimarron, Colorado
Current Conditions -  °F | °C
As of 1:53 AM on Saturday 29 Nov 2014 (Local Time) from KMTJ Reporting Station
Clear Clear  
Wind Chill: 26°   Ceiling: Unl
Heat Index: 32°   Visibility: 10mi
Dew Point: 15°   Wind: 6mph
Humidity: 50%   Direction: 110°ESE
Pressure: 29.96"   Gusts: NA
Location:  38.44°N, 107.56°W
Report Text: KMTJ 290853Z AUTO 11005KT 10SM CLR 00/M09 A2996 RMK AO2 SLP115 T00001094 58015
Loading
Personal Weather Stations






























Interactive Weather Map New forecast layout! Learn more

10-Day Weather Forecast

Advertisements
Track Severe Weather on mobile